createdAt,value
2022-09-12T00:02:05.510Z,99.90
2022-09-12T00:04:38.962Z,99.90
2022-09-12T00:07:09.964Z,99.90
2022-09-12T00:09:41.010Z,99.90
2022-09-12T00:12:13.280Z,99.90
2022-09-12T00:14:48.333Z,99.90
2022-09-12T00:17:22.958Z,99.90
2022-09-12T00:19:59.026Z,99.90
2022-09-12T00:22:29.257Z,99.90
2022-09-12T00:25:03.965Z,99.90
2022-09-12T00:27:46.746Z,99.90
2022-09-12T00:30:20.381Z,99.90
2022-09-12T00:32:57.995Z,99.90
2022-09-12T00:35:39.646Z,99.90
2022-09-12T00:38:12.317Z,99.90
2022-09-12T00:40:41.962Z,99.90
2022-09-12T00:43:15.459Z,99.90
2022-09-12T00:45:44.526Z,99.90
2022-09-12T00:48:25.726Z,99.90
2022-09-12T00:50:56.407Z,99.90
2022-09-12T00:53:25.618Z,99.90
2022-09-12T00:55:54.853Z,99.90
2022-09-12T00:58:28.466Z,99.90
2022-09-12T01:00:58.596Z,99.90
2022-09-12T01:03:28.616Z,99.90
2022-09-12T01:06:07.057Z,99.90
2022-09-12T01:08:39.725Z,99.90
2022-09-12T01:11:10.198Z,99.90
2022-09-12T01:13:39.494Z,99.90
2022-09-12T01:16:09.897Z,99.90
2022-09-12T01:18:56.554Z,99.90
2022-09-12T01:21:38.929Z,99.90
2022-09-12T01:24:37.089Z,99.90
2022-09-12T01:27:37.690Z,99.90
2022-09-12T01:30:49.711Z,99.90
2022-09-12T01:33:38.336Z,99.90
2022-09-12T01:36:36.809Z,99.90
2022-09-12T01:39:10.406Z,99.90
2022-09-12T01:41:54.247Z,99.90
2022-09-12T01:44:33.629Z,99.90
2022-09-12T01:47:09.739Z,99.90
2022-09-12T01:49:43.545Z,99.90
2022-09-12T01:52:20.037Z,99.90
2022-09-12T01:55:09.451Z,99.90
2022-09-12T01:58:13.801Z,99.90
2022-09-12T02:00:57.712Z,99.90
2022-09-12T02:03:32.485Z,99.90
2022-09-12T02:06:09.194Z,99.90
2022-09-12T02:08:47.510Z,99.90
2022-09-12T02:11:24.848Z,99.90
2022-09-12T02:14:00.626Z,99.90
2022-09-12T02:16:34.911Z,99.90
2022-09-12T02:19:12.106Z,99.90
2022-09-12T02:21:44.281Z,99.90
2022-09-12T02:24:16.086Z,99.90
2022-09-12T02:26:51.537Z,99.90
2022-09-12T02:29:20.468Z,99.90
2022-09-12T02:31:51.288Z,99.90
2022-09-12T02:34:33.565Z,99.90
2022-09-12T02:37:13.415Z,99.90
2022-09-12T02:39:45.283Z,99.90
2022-09-12T02:42:15.187Z,99.90
2022-09-12T02:44:44.510Z,99.90
2022-09-12T02:47:17.585Z,99.90
2022-09-12T02:49:48.670Z,99.90
2022-09-12T02:52:17.583Z,99.90
2022-09-12T02:54:47.419Z,99.90
2022-09-12T02:57:23.138Z,99.90
2022-09-12T02:59:55.761Z,99.90
2022-09-12T03:02:34.044Z,99.90
2022-09-12T03:05:18.731Z,99.90
2022-09-12T03:08:16.564Z,99.90
2022-09-12T03:10:57.457Z,99.90
2022-09-12T03:13:36.138Z,99.90
2022-09-12T03:16:23.185Z,99.90
2022-09-12T03:19:08.463Z,99.90
2022-09-12T03:21:52.182Z,99.90
2022-09-12T03:24:24.584Z,99.90
2022-09-12T03:26:58.465Z,99.90
2022-09-12T03:29:29.804Z,99.90
2022-09-12T03:32:31.357Z,99.90
2022-09-12T03:35:46.507Z,99.90
2022-09-12T03:38:47.245Z,99.90
2022-09-12T03:41:39.085Z,99.90
2022-09-12T03:44:26.114Z,99.90
2022-09-12T03:47:17.752Z,99.90
2022-09-12T03:50:07.436Z,99.90
2022-09-12T03:53:07.370Z,99.90
2022-09-12T03:55:52.371Z,99.90
2022-09-12T03:58:34.384Z,99.90
2022-09-12T04:01:19.660Z,99.90
2022-09-12T04:04:03.254Z,99.90
2022-09-12T04:06:50.550Z,99.90
2022-09-12T04:09:37.654Z,99.90
2022-09-12T04:12:10.252Z,99.90
2022-09-12T04:14:44.241Z,99.90
2022-09-12T04:17:19.070Z,99.90
2022-09-12T04:20:06.948Z,99.90
2022-09-12T04:22:43.176Z,99.90
2022-09-12T04:25:24.967Z,99.90
2022-09-12T04:28:11.710Z,99.90
2022-09-12T04:31:03.263Z,99.90
2022-09-12T04:33:39.418Z,99.90
2022-09-12T04:37:24.228Z,99.90
2022-09-12T04:39:59.807Z,99.90
2022-09-12T04:42:48.185Z,99.90
2022-09-12T04:45:32.847Z,99.90
2022-09-12T04:48:08.826Z,99.90
2022-09-12T04:50:41.887Z,99.90
2022-09-12T04:53:10.941Z,99.90
2022-09-12T04:55:39.774Z,99.90
2022-09-12T04:58:09.921Z,99.90
2022-09-12T05:00:40.432Z,99.90
2022-09-12T05:03:09.278Z,99.90
2022-09-12T05:05:38.306Z,99.90
2022-09-12T05:08:07.358Z,99.90
2022-09-12T05:10:36.853Z,99.90
2022-09-12T05:13:06.097Z,99.90
2022-09-12T05:15:35.648Z,99.90
2022-09-12T05:18:08.354Z,99.90
2022-09-12T05:20:38.454Z,99.90
2022-09-12T05:23:07.297Z,99.90
2022-09-12T05:25:36.351Z,99.90
2022-09-12T05:28:07.562Z,99.90
2022-09-12T05:30:36.653Z,99.90
2022-09-12T05:33:07.045Z,99.90
2022-09-12T05:35:38.249Z,99.90
2022-09-12T05:38:07.552Z,99.90
2022-09-12T05:40:36.441Z,99.90
2022-09-12T05:43:05.493Z,99.90
2022-09-12T05:45:35.032Z,99.90
2022-09-12T05:48:05.812Z,99.90
2022-09-12T05:50:34.807Z,99.90
2022-09-12T05:53:04.006Z,99.90
2022-09-12T05:55:33.509Z,99.90
2022-09-12T05:58:02.716Z,99.90
2022-09-12T06:00:33.661Z,99.90
2022-09-12T06:03:02.936Z,99.90
2022-09-12T06:05:34.219Z,99.90
2022-09-12T06:08:03.457Z,99.90
2022-09-12T06:10:32.798Z,99.90
2022-09-12T06:13:01.625Z,99.90
2022-09-12T06:15:30.405Z,99.90
2022-09-12T06:18:01.967Z,99.90
2022-09-12T06:20:30.998Z,99.90
2022-09-12T06:23:01.802Z,99.90
2022-09-12T06:25:30.835Z,99.90
2022-09-12T06:27:59.878Z,99.90
2022-09-12T06:30:28.875Z,99.90
2022-09-12T06:32:58.980Z,99.90
2022-09-12T06:35:28.109Z,99.90
2022-09-12T06:38:00.678Z,99.90
2022-09-12T06:40:32.522Z,99.90
2022-09-12T06:43:02.511Z,99.90
2022-09-12T06:45:38.817Z,99.90
2022-09-12T06:48:10.254Z,99.90
2022-09-12T06:50:39.782Z,99.90
2022-09-12T06:53:09.513Z,99.90
2022-09-12T06:55:40.814Z,99.90
2022-09-12T06:58:09.759Z,99.90
2022-09-12T07:00:40.517Z,99.90
2022-09-12T07:03:12.744Z,99.90
2022-09-12T07:05:45.775Z,99.90
2022-09-12T07:08:15.412Z,99.90
2022-09-12T07:10:47.155Z,99.90
2022-09-12T07:13:17.102Z,99.90
2022-09-12T07:15:47.238Z,99.90
2022-09-12T07:18:22.749Z,99.90
2022-09-12T07:20:52.584Z,99.90
2022-09-12T07:23:26.796Z,99.90
2022-09-12T07:26:02.240Z,99.90
2022-09-12T07:28:33.069Z,99.90
2022-09-12T07:31:08.121Z,99.90
2022-09-12T07:33:37.575Z,99.90
2022-09-12T07:36:08.350Z,99.90
2022-09-12T07:38:37.795Z,99.90
2022-09-12T07:41:17.670Z,99.90
2022-09-12T07:43:47.932Z,99.90
2022-09-12T07:46:17.025Z,99.90
2022-09-12T07:48:46.493Z,99.90
2022-09-12T07:51:18.896Z,99.40
2022-09-12T07:53:49.367Z,98.80
2022-09-12T07:56:25.042Z,99.00
2022-09-12T07:58:57.248Z,99.00
2022-09-12T08:01:26.774Z,99.20
2022-09-12T08:03:58.589Z,99.20
2022-09-12T08:06:30.624Z,98.50
2022-09-12T08:09:02.129Z,98.70
2022-09-12T08:11:32.609Z,98.60
2022-09-12T08:14:03.253Z,99.00
2022-09-12T08:16:35.035Z,98.60
2022-09-12T08:19:05.330Z,98.60
2022-09-12T08:21:35.770Z,99.00
2022-09-12T08:24:07.513Z,98.40
2022-09-12T08:26:39.203Z,98.20
2022-09-12T08:29:11.050Z,97.90
2022-09-12T08:31:43.184Z,98.00
2022-09-12T08:34:12.415Z,97.90
2022-09-12T08:36:41.812Z,97.40
2022-09-12T08:39:15.135Z,97.20
2022-09-12T08:41:47.550Z,96.00
2022-09-12T08:44:42.882Z,95.20
2022-09-12T08:47:27.307Z,95.10
2022-09-12T08:50:04.722Z,94.80
2022-09-12T08:52:41.053Z,94.30
2022-09-12T08:55:25.447Z,94.10
2022-09-12T08:57:57.057Z,94.10
2022-09-12T09:00:32.273Z,94.10
2022-09-12T09:03:27.671Z,94.00
2022-09-12T09:06:04.912Z,94.00
2022-09-12T09:08:50.480Z,93.90
2022-09-12T09:11:36.215Z,94.00
2022-09-12T09:14:43.515Z,94.00
2022-09-12T09:17:15.615Z,94.00
2022-09-12T09:19:51.145Z,94.20
2022-09-12T09:22:29.776Z,94.10
2022-09-12T09:25:04.224Z,94.40
2022-09-12T09:27:40.867Z,93.50
2022-09-12T09:30:17.171Z,93.60
2022-09-12T16:19:10.461Z,56.30
2022-09-12T17:05:09.031Z,55.00
2022-09-12T17:07:40.122Z,55.90
2022-09-12T17:10:09.181Z,56.00
2022-09-12T17:12:38.029Z,56.20
2022-09-12T17:15:08.204Z,56.60
2022-09-12T17:17:37.098Z,57.20
2022-09-12T17:20:07.915Z,57.80
2022-09-12T17:22:36.906Z,59.50
2022-09-12T17:25:06.726Z,61.70
2022-09-12T17:27:35.494Z,63.10
2022-09-12T17:30:04.477Z,65.00
2022-09-12T17:32:33.365Z,66.50
2022-09-12T17:35:02.416Z,68.20
2022-09-12T17:37:33.522Z,69.70
2022-09-12T17:40:02.912Z,70.60
2022-09-12T17:42:31.791Z,71.60
2022-09-12T17:45:00.551Z,72.10
2022-09-12T17:47:29.316Z,73.30
2022-09-12T17:50:14.490Z,74.40
2022-09-12T17:52:48.828Z,75.70
2022-09-12T17:55:19.243Z,77.30
2022-09-12T17:57:48.293Z,78.70
2022-09-12T18:00:17.463Z,80.00
2022-09-12T18:02:47.048Z,81.10
2022-09-12T18:05:15.948Z,81.30
2022-09-12T18:07:45.012Z,81.70
2022-09-12T18:10:16.139Z,82.30
2022-09-12T18:12:47.508Z,83.70
2022-09-12T18:15:16.575Z,84.80
2022-09-12T18:17:45.278Z,85.50
2022-09-12T18:20:14.051Z,85.60
2022-09-12T18:22:43.170Z,86.40
2022-09-12T18:25:12.562Z,87.30
2022-09-12T18:27:42.797Z,88.00
2022-09-12T18:30:21.775Z,89.40
2022-09-12T18:32:51.814Z,89.80
2022-09-12T18:35:20.801Z,89.90
2022-09-12T18:37:49.520Z,90.20
2022-09-12T18:40:18.700Z,90.70
2022-09-12T18:42:49.679Z,91.10
2022-09-12T18:45:18.757Z,91.50
2022-09-12T18:47:47.550Z,92.00
2022-09-12T18:50:16.562Z,92.10
2022-09-12T18:52:45.646Z,93.30
2022-09-12T18:55:14.662Z,93.00
2022-09-12T18:57:43.622Z,93.00
2022-09-12T19:00:15.735Z,93.80
2022-09-12T19:02:44.738Z,94.70
2022-09-12T19:05:28.347Z,95.10
2022-09-12T19:18:49.794Z,94.90
2022-09-12T19:22:21.780Z,94.40
2022-09-12T19:29:20.177Z,96.40
2022-09-12T19:50:06.518Z,97.30
2022-09-12T20:03:30.564Z,98.30
2022-09-12T20:06:04.321Z,98.80
2022-09-12T20:08:33.568Z,99.50
2022-09-12T20:11:02.553Z,99.90
2022-09-12T20:13:31.353Z,99.90
2022-09-12T20:16:08.101Z,99.90
2022-09-12T20:18:38.759Z,99.90
2022-09-12T20:21:12.690Z,99.90
2022-09-12T20:23:41.705Z,99.90
2022-09-12T20:26:11.732Z,99.90
2022-09-12T20:28:44.019Z,99.90
2022-09-12T20:31:14.848Z,99.90
2022-09-12T20:33:51.121Z,99.90
2022-09-12T20:36:22.151Z,99.90
2022-09-12T20:38:52.609Z,99.90
2022-09-12T20:41:22.717Z,99.10
2022-09-12T20:43:52.870Z,98.10
2022-09-12T20:46:22.750Z,97.40
2022-09-12T20:48:55.254Z,97.00
2022-09-12T20:51:25.000Z,96.40
2022-09-12T20:53:55.767Z,96.40
2022-09-12T20:56:27.564Z,96.20
2022-09-12T20:58:57.383Z,96.20
2022-09-12T21:01:27.666Z,95.80
2022-09-12T21:03:58.150Z,95.30
2022-09-12T21:06:27.578Z,95.60
2022-09-12T21:08:59.982Z,95.80
2022-09-12T21:11:29.781Z,95.80
2022-09-12T21:13:59.300Z,95.80
2022-09-12T21:16:28.608Z,95.50
2022-09-12T21:19:00.313Z,95.20
2022-09-12T21:21:29.442Z,95.20
2022-09-12T21:24:01.047Z,95.20
2022-09-12T21:26:30.380Z,95.20
2022-09-12T21:28:59.667Z,95.50
2022-09-12T21:31:28.785Z,95.30
2022-09-12T21:33:59.583Z,95.50
2022-09-12T21:36:31.667Z,95.60
2022-09-12T21:39:00.914Z,95.90
2022-09-12T21:41:30.179Z,95.70
2022-09-12T21:43:59.762Z,95.90
2022-09-12T21:46:28.882Z,95.70
2022-09-12T21:48:59.622Z,95.80
2022-09-12T21:51:28.459Z,95.60
2022-09-12T21:53:57.398Z,95.90
2022-09-12T21:56:26.423Z,96.40
2022-09-12T21:58:55.064Z,96.20
2022-09-12T22:01:23.979Z,97.20
2022-09-12T22:03:53.359Z,97.00
2022-09-12T22:06:23.871Z,97.10
2022-09-12T22:08:52.526Z,97.20
2022-09-12T22:11:23.050Z,97.50
2022-09-12T22:13:51.754Z,97.40
2022-09-12T22:16:20.796Z,97.40
2022-09-12T22:18:51.147Z,97.80
2022-09-12T22:21:24.526Z,98.00
2022-09-12T22:24:10.799Z,97.90
2022-09-12T22:26:44.561Z,98.00
2022-09-12T22:29:14.727Z,97.40
2022-09-12T22:31:43.682Z,97.00
2022-09-12T22:34:12.423Z,96.10
2022-09-12T22:36:42.674Z,95.60
2022-09-12T22:39:11.559Z,95.50
2022-09-12T22:41:40.323Z,95.60
2022-09-12T22:44:09.251Z,95.20
2022-09-12T22:46:38.224Z,94.70
2022-09-12T22:49:07.413Z,94.60
2022-09-12T22:51:36.537Z,94.70
2022-09-12T22:54:07.361Z,95.00
2022-09-12T22:56:35.927Z,94.90
2022-09-12T22:59:05.183Z,95.30
2022-09-12T23:01:34.219Z,95.40
2022-09-12T23:04:04.322Z,95.80
2022-09-12T23:06:33.006Z,95.80
2022-09-12T23:09:02.108Z,95.70
2022-09-12T23:11:32.339Z,95.70
2022-09-12T23:14:01.179Z,95.70
2022-09-12T23:16:32.430Z,95.30
2022-09-12T23:19:01.437Z,95.10
2022-09-12T23:21:31.091Z,95.00
2022-09-12T23:24:00.393Z,95.20
2022-09-12T23:26:30.143Z,95.40
2022-09-12T23:29:02.785Z,96.10
2022-09-12T23:31:33.191Z,96.50
2022-09-12T23:34:03.756Z,97.20
2022-09-12T23:36:32.826Z,97.60
2022-09-12T23:39:02.111Z,97.90
2022-09-12T23:41:31.286Z,98.30
2022-09-12T23:44:01.597Z,98.90
2022-09-12T23:46:30.724Z,99.10
2022-09-12T23:48:59.482Z,99.30
2022-09-12T23:51:28.583Z,99.20
2022-09-12T23:53:57.517Z,99.20
2022-09-12T23:56:26.749Z,98.50
2022-09-12T23:58:55.632Z,98.30
